Estación Meteorológica Peña el Pijo (Robertgarden) [ 06/24/19 14:05:39 CEST ]

Fecha Hora Presion(HPa) Temp (°C) Humedad % Rocio (°C) Viento ( m/s) Direccion Lluvia 1Hora(mm) Lluvia 24H(mm) LLuvia Total(mm)
2019-Feb-04 01:02:03 1014.200 -0.7 65 -6.5         183.37
2019-Feb-04 02:03:07 1013.900 -1.3 67 -6.7         183.37
2019-Feb-04 03:01:57 1013.900 -1.6 69 -6.5         183.37
2019-Feb-04 04:01:48 1014.100 -1.2 69 -6.2         183.37
2019-Feb-04 05:02:05 1013.800 -1.1 68 -6.3         183.37
2019-Feb-04 06:01:39 1014.200 -1.8 69 -6.7         183.37
2019-Feb-04 07:01:51 1014.400 -1.5 69 -6.4         183.37
2019-Feb-04 08:01:42 1014.400 -1.6 67 -6.9         183.37
2019-Feb-04 09:02:00 1014.800 -1.8 64 -7.7         183.37
2019-Feb-04 10:01:47 1015.000 3.0 55 -5.2         183.37
2019-Feb-04 11:01:40 1015.100 8.6 40 -4.3         183.37
2019-Feb-04 12:01:40 1015.500 12.5 30 -4.6         183.37
2019-Feb-04 13:01:45 1015.000 12.3 27 -6.4         183.37
2019-Feb-04 14:01:32 1014.400 12.9 26 -6.4 0.5 N     183.37
2019-Feb-04 15:01:43 1013.600 14.3 22 -7.3         183.37
2019-Feb-04 16:01:39 1013.400 15.1 22 -6.6         183.37
2019-Feb-04 17:01:27 1013.700 13.9 25 -6.0         183.37
2019-Feb-04 18:01:11 1013.700 10.8 29 -6.5         183.37
2019-Feb-04 19:01:51 1014.300 6.9 41 -5.5         183.37
2019-Feb-04 20:01:39 1015.100 3.8 52 -5.2         183.37
2019-Feb-04 21:01:53 1015.300 2.6 57 -5.1         183.37
2019-Feb-04 22:01:49 1015.700 2.3 60 -4.6         183.37
2019-Feb-04 23:01:48 1016.000 2.3 60 -4.6         183.37

Temperatura Máxima:15°    Temperatura Mínima:-1°
Presión Máxima:1016.000 Hpa    Presión Mínima:1013.400 Hpa


Volver